Ohakea (NZOH)

Aerodrome — Elev 164
New Zealand
S040.12.21.740 E175.23.16.109
Loading chart...

NZOH_CTR (Or NZCH-W_CTR when OH_CTR is off watch) provides approach control for this airport. Contact NZOH_CTR prior to entering controlled airspace or entering IMC. When NZOH_TWR is on watch they will co-ordinate with NZOH_CTR for your departure/arrival.

Current Weather

NZOH 211700Z 35006KT 30KM BKN040 10/07 Q0982 RMK ALT NZPM VATSIM USE ONLY

Published 1 hours 49 minutes ago

Airport Activity

Loading chart...
Loading chart...

Positions

CallsignRadio Name / Freq / Voice Room / TypeFrequencyVoice RoomType
NZOH_CTR Ohakea Control
125.100
nzoh_ctr
125.100nzoh_ctr
NZOH_TWR Ohakea Tower
134.500
nzoh_twr
134.500nzoh_twr
NZOH_ATIS Ohakea ATIS
135.000
nzoh_atis
135.000nzoh_atis
UNICOM NZZC UNICOM
122.800
unicom_nzzc
122.800unicom_nzzc

Charts